Tuesday, August 30, 2016
20:49 UTC
  |  Log In   |  Register Free
Airport Search:

De Kalb County Airport
(KGWB)

De Kalb County Airport Diagram
No Airport Diagram Available

FAA data valid effective Jul 21 2016 - Sep 15 2016 (unless otherwise noted).

 
 
 
 
 
 
 
 
 
 
 
 
 
 
Current Aviation Weather for KGWB

Weather Summary


The most recent METAR observation for GWB was updated at: 12:55 UTC
METAR for GWB is not available. Closest METAR is for
METAR

METAR KGWB 302035Z 00000KT 10SM -RA CLR 28/20 A3009 RMK AO2

METAR KGWB 302015Z 00000KT 10SM CLR 28/20 A3008 RMK AO2

METAR KGWB 301955Z 00000KT 10SM CLR 28/18 A3009 RMK AO2

METAR KGWB 301935Z 00000KT 10SM CLR 30/18 A3010 RMK AO2

METAR KGWB 301915Z 00000KT 10SM SCT034 SCT041 29/20 A3011 RMK AO2

METAR KGWB 301855Z 00000KT 10SM SCT041 29/19 A3012 RMK AO2

METAR KGWB 301835Z 21003KT 10SM SCT029 28/20 A3013 RMK AO2

METAR KGWB 301815Z 00000KT 10SM CLR 28/20 A3013 RMK AO2

METAR KGWB 301755Z 00000KT 10SM CLR 28/19 A3014 RMK AO2

METAR KANQ 302035Z 00000KT 10SM FEW110 28/22 A3008 RMK

METAR KC62 302035Z 16009KT 10SM RA BKN026 BKN041 OVC049 22/21 A3010 RMK AO2 T02280209

METAR KDFI 301953Z 00000KT 10SM CLR 30/19 A3009 RMK AO2 SLP183 T03000189

TAF for GWB is not available.
TAF

KFWA - TAF AMD KFWA 302020Z 3020/3118 20005KT P6SM VCTS SCT040CB

KFWA - TEMPO 3020/3022 27015G25KT 3SM TSRA BKN040CB

KFWA - FM310000 23003KT P6SM SCT050 BKN100

KFWA - FM310700 26003KT P6SM BKN050

KFWA - FM311400 32006KT P6SM BKN040 =

GlobalAir.com is loading additional information.
 Current Weather at GWB
84.0 F° (29.0 C°)

North winds at 0.0 mph
Pressure:
30.12 in
Humidity:
55%
Wind:
North at 0.0 mph
Dew Point:
66.2 F° (19.0 C°)
Visibility:
10.00 mi
GWB NOAA Radar




Find All Airport Services Find A Hotel Find A Rental Car Find A Golf Course Find A Restaurant $100 Hamburger



Airport Weather Forecast for KGWB

Translated METAR for KGWB (2035 UTC)
METAR:
KGWB 302035Z AUTO de Kalb County, Auburn, IN (KGWB). Aug 30, 2035Z, Automated. Light Rain, Wind is Calm, 10 statute miles visibility, Clear Skies, Temperature 28°C, Dewpoint 20°C, Altimeter is 30.09. Remarks: automated station with precipitation discriminator
Conditions at:
KGWB (De Kalb County, IN) observed 2035 UTC 30 August 2016
Temperature:
84.0 F° (29.0 C°)
Dewpoint:
not reported - refer to area weather report
Pressure:
30.12 Hg
Winds:
Calm
Visibility:
10.00
Ceiling:
at least 12,000 feet AGL
Clouds:
not reported - refer to area weather report
Remarks:
site is un-manned

Translated TAF for TAF for GWB is not available. Refer to local area forecast.
FBO's on the Field
FBO Company Facility Photos Services Transportation Aviation Fuel Prices: Prices include tax
Catering Weather Repair Courtesy Rental Type 100LL JetA JetA+ MOGAS 8087
 
Century Aviation

This FBO has not yet been rated
FS:Shell
Last Updated: Aug-14
Login to update fuel prices
SS:
Contact Century AviationMore FBO Information
 
Add another FBO Facility Photos Catering Weather Repair Courtesy Rental Type 100LL JetA JetA+ MOGAS 8087
Services Transportation Aviation Fuel Prices: Prices include tax


model-print
model-print
model-print
model-print